Weather History for Oakland, MD

Change the Weather History Date:

Wednesday, January 30, 2013

  Actual Average (KMGW) Record (KMGW)
Temperature  
Mean Temperature 54 °F 32 °F  
Max Temperature 64 °F 40 °F 74 °F (2013)
Min Temperature 42 °F 24 °F -2 °F (2014)
Degree Days  
Heating Degree Days 11 33  
Month to date heating degree days 1012  
Since 1 July heating degree days 2996  
Cooling Degree Days 0 0  
Month to date cooling degree days 0  
Year to date cooling degree days 0  
Growing Degree Days 4 (Base 50)    
Moisture  
Dew Point 50 °F    
Average Humidity 89    
Maximum Humidity 100    
Minimum Humidity 64    
Precipitation  
Precipitation 0.00 in 0.09 in 1.11 in (2013)
Month to date precipitation 2.72  
Year to date precipitation 2.72  
Sea Level Pressure  
Sea Level Pressure 29.60 in    
Wind  
Wind Speed 14 mph (SSW)    
Max Wind Speed 24 mph    
Max Gust Speed 39 mph    
Visibility 8 miles    
Events      
T = Trace of Precipitation, MM = Missing Value Source: NWS Daily Summary

Daily Weather History Graph

Daily Weather History Graph

Search for Another Location

Airport:

Trip Planner

Search our weather history database for the weather conditions in past years. The results will help you decide how hot, cold, wet, or windy it might be!

Date:

Astronomy

Jan. 30, 2013 Rise Set
Actual Time 7:26 AM EST 5:35 PM EST
Civil Twilight 6:58 AM EST 6:03 PM EST
Nautical Twilight 6:25 AM EST 6:36 PM EST
Astronomical Twilight 5:54 AM EST 7:07 PM EST
Moon 9:31 PM EST (1/30) 8:54 AM EST (1/30)
Length of Visible Light 11h 05m
Length of Day
10h 08m
Waning Gibbous, 88% of the Moon is Illuminated
Jan 30
Waning Gibbous
Feb 3
Last Quarter
Feb 10
New
Feb 17
First Quarter
Feb 25
Full

Hourly Weather History & Observations

Time (EST) Temp. Windchill Dew Point Humidity Pressure Visibility Wind Dir Wind Speed Gust Speed Precip Events Conditions
12:00 AM 53.6 °F - 46.4 °F 77% 29.91 in 10.0 mi South 11.5 mph - N/A   Clear
12:20 AM 53.6 °F - 46.4 °F 77% 29.90 in 10.0 mi South 10.4 mph - N/A   Clear
12:40 AM 53.6 °F - 46.4 °F 77% 29.88 in 10.0 mi South 10.4 mph - N/A   Clear
1:05 AM 51.8 °F - 46.4 °F 82% 29.87 in 10.0 mi SSW 12.7 mph - N/A   Clear
1:25 AM 53.6 °F - 46.4 °F 77% 29.85 in 10.0 mi South 12.7 mph 19.6 mph N/A   Clear
1:45 AM 53.6 °F - 46.4 °F 77% 29.85 in 10.0 mi South 12.7 mph - N/A   Clear
2:05 AM 53.6 °F - 46.4 °F 77% 29.83 in 10.0 mi South 12.7 mph - N/A   Clear
2:30 AM 53.6 °F - 46.4 °F 77% 29.82 in 10.0 mi South 15.0 mph - N/A   Clear
2:50 AM 53.6 °F - 46.4 °F 77% 29.81 in 10.0 mi South 11.5 mph - N/A   Clear
3:10 AM 51.8 °F - 46.4 °F 82% 29.80 in 10.0 mi South 12.7 mph - N/A   Clear
3:30 AM 53.6 °F - 46.4 °F 77% 29.78 in 10.0 mi South 13.8 mph 19.6 mph N/A   Clear
3:55 AM 53.6 °F - 46.4 °F 77% 29.77 in 10.0 mi South 15.0 mph 20.7 mph N/A   Clear
4:15 AM 53.6 °F - 48.2 °F 82% 29.76 in 10.0 mi South 17.3 mph 23.0 mph N/A   Clear
4:35 AM 53.6 °F - 50.0 °F 88% 29.75 in 10.0 mi South 17.3 mph 24.2 mph N/A   Clear
4:55 AM 53.6 °F - 50.0 °F 88% 29.73 in 10.0 mi South 18.4 mph 27.6 mph N/A   Clear
5:20 AM 55.4 °F - 51.8 °F 88% 29.72 in 10.0 mi South 21.9 mph 29.9 mph N/A   Clear
6:00 AM 55.4 °F - 51.8 °F 88% 29.71 in 10.0 mi South 18.4 mph 25.3 mph N/A   Clear
6:20 AM 55.4 °F - 51.8 °F 88% 29.70 in 10.0 mi South 18.4 mph 24.2 mph N/A   Clear
6:45 AM 57.2 °F - 51.8 °F 82% 29.68 in 10.0 mi South 17.3 mph 27.6 mph N/A   Clear
7:05 AM 57.2 °F - 51.8 °F 82% 29.67 in 10.0 mi South 20.7 mph 24.2 mph N/A   Clear
7:25 AM 59.0 °F - 51.8 °F 77% 29.66 in 10.0 mi South 18.4 mph 29.9 mph N/A   Clear
7:45 AM 59.0 °F - 51.8 °F 77% 29.65 in 10.0 mi South 19.6 mph 27.6 mph N/A   Clear
8:10 AM 59.0 °F - 51.8 °F 77% 29.64 in 10.0 mi South 19.6 mph 27.6 mph N/A   Clear
8:30 AM 59.0 °F - 51.8 °F 77% 29.65 in 10.0 mi South 20.7 mph 27.6 mph N/A   Clear
8:50 AM 59.0 °F - 51.8 °F 77% 29.63 in 10.0 mi South 23.0 mph 32.2 mph N/A   Clear
9:10 AM 60.8 °F - 51.8 °F 72% 29.63 in 10.0 mi South 23.0 mph 34.5 mph N/A   Clear
9:35 AM 60.8 °F - 51.8 °F 72% 29.62 in 10.0 mi South 19.6 mph 28.8 mph N/A   Clear
9:55 AM 62.6 °F - 51.8 °F 68% 29.61 in 10.0 mi South 19.6 mph 26.5 mph N/A   Clear
10:15 AM 64.4 °F - 51.8 °F 64% 29.60 in 10.0 mi South 20.7 mph 27.6 mph N/A   Clear
10:35 AM 64.4 °F - 51.8 °F 64% 29.60 in 10.0 mi South 24.2 mph 39.1 mph N/A   Scattered Clouds
11:00 AM 64.4 °F - 51.8 °F 64% 29.58 in 10.0 mi South 24.2 mph 35.7 mph N/A   Mostly Cloudy
11:20 AM 64.4 °F - 51.8 °F 64% 29.58 in 10.0 mi SSW 13.8 mph 33.4 mph N/A   Overcast
11:40 AM 53.6 °F - 51.8 °F 94% 29.65 in 1.2 mi West 12.7 mph 32.2 mph N/A   Overcast
12:00 PM 51.8 °F - 51.8 °F 100% 29.65 in 5.0 mi West 10.4 mph 34.5 mph N/A   Overcast
12:25 PM 51.8 °F - 51.8 °F 100% 29.66 in 5.0 mi West 13.8 mph 25.3 mph N/A   Overcast
12:45 PM 51.8 °F - 51.8 °F 100% 29.64 in 4.0 mi WSW 11.5 mph 20.7 mph N/A   Overcast
1:05 PM 51.8 °F - 51.8 °F 100% 29.64 in 7.0 mi WSW 15.0 mph 25.3 mph N/A   Overcast
1:25 PM 51.8 °F - 51.8 °F 100% 29.64 in 5.0 mi WSW 12.7 mph 21.9 mph N/A   Overcast
1:50 PM 51.8 °F - 51.8 °F 100% 29.63 in 5.0 mi WSW 11.5 mph 20.7 mph N/A   Overcast
2:10 PM 50.0 °F - 50.0 °F 100% 29.61 in 10.0 mi WSW 11.5 mph 19.6 mph N/A   Overcast
2:30 PM 50.0 °F - 50.0 °F 100% 29.60 in 10.0 mi West 9.2 mph 17.3 mph N/A   Overcast
2:50 PM 50.0 °F - 50.0 °F 100% 29.58 in 4.0 mi West 5.8 mph - N/A   Overcast
3:15 PM 50.0 °F - 50.0 °F 100% 29.58 in 5.0 mi WSW 5.8 mph - N/A   Overcast
3:55 PM 50.0 °F - 50.0 °F 100% 29.56 in 7.0 mi South 9.2 mph - N/A   Overcast
4:15 PM 50.0 °F - 50.0 °F 100% 29.56 in 10.0 mi South 11.5 mph - N/A   Overcast
4:40 PM 50.0 °F - 50.0 °F 100% 29.55 in 7.0 mi South 9.2 mph - N/A   Overcast
5:00 PM 50.0 °F - 50.0 °F 100% 29.54 in 10.0 mi South 10.4 mph - N/A   Overcast
5:20 PM 50.0 °F - 50.0 °F 100% 29.52 in 7.0 mi South 9.2 mph - N/A   Overcast
5:40 PM 50.0 °F - 50.0 °F 100% 29.50 in 10.0 mi South 10.4 mph - N/A   Overcast
6:05 PM 50.0 °F - 50.0 °F 100% 29.49 in 10.0 mi South 13.8 mph - N/A   Overcast
6:25 PM 50.0 °F - 50.0 °F 100% 29.48 in 7.0 mi South 13.8 mph 19.6 mph N/A   Overcast
6:45 PM 50.0 °F - 50.0 °F 100% 29.45 in 7.0 mi South 16.1 mph 19.6 mph N/A   Overcast
7:05 PM 50.0 °F - 50.0 °F 100% 29.44 in 7.0 mi South 11.5 mph - N/A   Overcast
7:30 PM 50.0 °F - 50.0 °F 100% 29.42 in 7.0 mi South 16.1 mph 19.6 mph N/A   Overcast
7:50 PM 50.0 °F - 50.0 °F 100% 29.39 in 7.0 mi South 15.0 mph 21.9 mph N/A   Overcast
8:10 PM 50.0 °F - 50.0 °F 100% 29.38 in 7.0 mi South 13.8 mph 24.2 mph N/A   Overcast
8:30 PM 50.0 °F - 50.0 °F 100% 29.37 in 7.0 mi South 18.4 mph 24.2 mph N/A   Overcast
8:55 PM 50.0 °F - 50.0 °F 100% 29.35 in 7.0 mi South 16.1 mph 23.0 mph N/A   Overcast
9:15 PM 50.0 °F - 50.0 °F 100% 29.32 in 7.0 mi South 13.8 mph 20.7 mph N/A   Overcast
9:35 PM 50.0 °F - 50.0 °F 100% 29.31 in 7.0 mi South 15.0 mph 21.9 mph N/A   Overcast
9:55 PM 50.0 °F - 50.0 °F 100% 29.31 in 7.0 mi SSW 10.4 mph 19.6 mph N/A   Overcast
10:20 PM 44.6 °F 36.6 °F 44.6 °F 100% 29.33 in 3.0 mi WSW 19.6 mph 31.1 mph N/A   Overcast
10:40 PM 44.6 °F 38.1 °F 44.6 °F 100% 29.32 in 7.0 mi SW 13.8 mph 26.5 mph N/A   Overcast
11:00 PM 44.6 °F 36.9 °F 44.6 °F 100% 29.32 in 7.0 mi SW 18.4 mph 26.5 mph N/A   Overcast
11:20 PM 44.6 °F 38.8 °F 44.6 °F 100% 29.31 in 5.0 mi SW 11.5 mph 23.0 mph N/A   Overcast
11:45 PM 42.8 °F 34.8 °F 42.8 °F 100% 29.28 in 5.0 mi SW 17.3 mph 29.9 mph N/A   Overcast